Time;durP1;ratioP1;P1;durP2;ratioP2;P2;SDS_P1;SDS_P2;PMS_P1;PMS_P2;Temp;Humidity;BMP_temperature;BMP_pressure;BME280_temperature;BME280_humidity;BME280_pressure;Samples;Min_cycle;Max_cycle;Signal;HPM_P1;HPM_P2
2023/02/13 00:00:26;;;;;;;16.33;12.82;;;;;;;;;;6182238;23;20692;-87
2023/02/13 00:02:53;;;;;;;17.20;12.98;;;;;;;;;;6130167;23;20017;-87
2023/02/13 00:05:23;;;;;;;18.95;10.43;;;;;;;;;;6156547;23;20009;-87
2023/02/13 00:07:54;;;;;;;16.95;13.45;;;;;;;;;;6181860;23;20036;-87
2023/02/13 00:10:21;;;;;;;18.67;11.63;;;;;;;;;;6131666;23;20375;-87
2023/02/13 00:12:48;;;;;;;20.40;12.15;;;;;;;;;;6181842;23;20036;-87
2023/02/13 00:15:18;;;;;;;18.55;11.50;;;;;;;;;;6156182;23;20475;-87
2023/02/13 00:17:45;;;;;;;18.63;11.27;;;;;;;;;;6155340;23;20017;-87
2023/02/13 00:20:15;;;;;;;19.98;14.45;;;;;;;;;;6156010;23;20017;-87
2023/02/13 00:22:42;;;;;;;21.10;13.55;;;;;;;;;;6153180;23;20021;-87
2023/02/13 00:25:11;;;;;;;21.23;15.90;;;;;;;;;;6157386;23;20020;-87
2023/02/13 00:27:38;;;;;;;23.05;15.15;;;;;;;;;;6155966;23;20017;-87
2023/02/13 00:30:07;;;;;;;26.88;17.52;;;;;;;;;;6161532;23;20020;-87
2023/02/13 00:32:34;;;;;;;20.73;13.95;;;;;;;;;;6129514;23;20021;-87
2023/02/13 00:35:01;;;;;;;18.23;13.65;;;;;;;;;;6181771;23;20464;-87
2023/02/13 00:37:30;;;;;;;16.13;13.90;;;;;;;;;;6130884;23;20017;-87
2023/02/13 00:39:57;;;;;;;17.00;12.40;;;;;;;;;;6132491;23;20028;-87
2023/02/13 00:42:26;;;;;;;18.15;12.50;;;;;;;;;;6154401;23;20021;-87
2023/02/13 00:44:53;;;;;;;18.15;12.15;;;;;;;;;;6165224;23;20536;-87
2023/02/13 00:47:21;;;;;;;19.17;12.68;;;;;;;;;;6130689;23;20024;-87
2023/02/13 00:49:48;;;;;;;18.07;10.80;;;;;;;;;;6109973;23;1070278;-86
2023/02/13 00:52:15;;;;;;;14.27;12.05;;;;;;;;;;6165565;23;20364;-87
2023/02/13 00:54:45;;;;;;;15.50;12.43;;;;;;;;;;6132491;23;20021;-86
2023/02/13 00:57:13;;;;;;;17.73;12.43;;;;;;;;;;6132085;23;20017;-87
2023/02/13 00:59:44;;;;;;;17.05;11.38;;;;;;;;;;6165357;23;20013;-87
2023/02/13 01:02:11;;;;;;;20.65;11.68;;;;;;;;;;6130949;23;20021;-87
2023/02/13 01:04:40;;;;;;;17.50;12.88;;;;;;;;;;6129963;23;20021;-87
2023/02/13 01:07:07;;;;;;;14.48;10.32;;;;;;;;;;6154425;23;20017;-87
2023/02/13 01:09:35;;;;;;;16.75;10.57;;;;;;;;;;6166475;23;20314;-87
2023/02/13 01:12:02;;;;;;;16.73;11.57;;;;;;;;;;6130949;23;20017;-87
2023/02/13 01:14:30;;;;;;;18.67;12.27;;;;;;;;;;6131886;23;20428;-87
2023/02/13 01:16:59;;;;;;;18.20;13.88;;;;;;;;;;6155640;23;20014;-87
2023/02/13 01:19:38;;;;;;;14.63;11.15;;;;;;;;;;6156495;23;20028;-87
2023/02/13 01:22:24;;;;;;;16.75;13.38;;;;;;;;;;6165503;23;20013;-86
2023/02/13 01:25:30;;;;;;;15.95;13.30;;;;;;;;;;6156949;23;20025;-86
2023/02/13 01:28:28;;;;;;;14.30;10.77;;;;;;;;;;6166385;23;20036;-87
2023/02/13 01:31:21;;;;;;;17.20;13.55;;;;;;;;;;6184549;23;20036;-86
2023/02/13 01:34:12;;;;;;;;;;;;;;;;;;;;;
2023/02/13 01:37:42;;;;;;;;;;;;;;;;;;;;;
2023/02/13 01:40:22;;;;;;;16.95;12.02;;;;;;;;;;6048364;23;20030;-87
2023/02/13 01:42:49;;;;;;;18.02;15.27;;;;;;;;;;6153330;23;20024;-87
2023/02/13 01:45:23;;;;;;;15.27;11.98;;;;;;;;;;6158443;23;20021;-87
2023/02/13 01:47:53;;;;;;;17.45;11.60;;;;;;;;;;6191707;23;20028;-87
2023/02/13 01:50:31;;;;;;;14.50;12.77;;;;;;;;;;6188070;23;20020;-87
2023/02/13 01:53:02;;;;;;;19.23;10.00;;;;;;;;;;6132037;23;20017;-87
2023/02/13 01:55:31;;;;;;;19.23;14.52;;;;;;;;;;6133102;23;20356;-87
2023/02/13 01:58:02;;;;;;;16.25;10.10;;;;;;;;;;6157154;23;20017;-87
2023/02/13 02:00:30;;;;;;;16.40;10.18;;;;;;;;;;6132967;23;20361;-87
2023/02/13 02:03:01;;;;;;;16.20;10.70;;;;;;;;;;6168192;23;20020;-87
2023/02/13 02:05:32;;;;;;;17.25;14.40;;;;;;;;;;6133930;23;20017;-88
2023/02/13 02:08:00;;;;;;;18.90;13.40;;;;;;;;;;6132943;23;20025;-88
2023/02/13 02:10:28;;;;;;;16.80;12.60;;;;;;;;;;6133046;23;20468;-88
2023/02/13 02:12:59;;;;;;;13.15;11.23;;;;;;;;;;6132516;23;20025;-88
2023/02/13 02:15:27;;;;;;;18.83;13.55;;;;;;;;;;6168167;23;20013;-88
2023/02/13 02:17:55;;;;;;;14.50;10.75;;;;;;;;;;6157044;23;20013;-88
2023/02/13 02:20:33;;;;;;;20.50;12.93;;;;;;;;;;6133340;23;20021;-88
2023/02/13 02:23:28;;;;;;;15.95;11.70;;;;;;;;;;6165910;23;20013;-88
2023/02/13 02:26:33;;;;;;;18.00;13.35;;;;;;;;;;6167719;23;20013;-88
2023/02/13 02:29:33;;;;;;;22.42;12.68;;;;;;;;;;6123831;23;20017;-89
2023/02/13 02:32:10;;;;;;;13.18;10.63;;;;;;;;;;6119475;23;20017;-88
2023/02/13 02:34:46;;;;;;;11.88;9.50;;;;;;;;;;6158103;23;20025;-88
2023/02/13 02:37:22;;;;;;;16.17;10.30;;;;;;;;;;6167304;23;20016;-88
2023/02/13 02:39:57;;;;;;;11.30;9.73;;;;;;;;;;6132471;23;20361;-86
2023/02/13 02:42:30;;;;;;;16.90;11.93;;;;;;;;;;6130066;23;20028;-88
2023/02/13 02:45:05;;;;;;;16.98;10.05;;;;;;;;;;6131858;23;20469;-88
2023/02/13 02:50:33;;;;;;;18.05;13.27;;;;;;;;;;6163114;23;20385;-88
2023/02/13 02:53:15;;;;;;;15.63;11.90;;;;;;;;;;6164986;23;20381;-88
2023/02/13 02:55:48;;;;;;;18.63;12.88;;;;;;;;;;6167558;23;20201;-88
2023/02/13 03:06:44;;;;;;;16.27;10.18;;;;;;;;;;6167906;23;20013;-88
2023/02/13 03:14:50;;;;;;;17.73;13.98;;;;;;;;;;6193575;23;20013;-87
2023/02/13 03:23:14;;;;;;;14.65;11.25;;;;;;;;;;6158781;23;20027;-88
2023/02/13 03:25:54;;;;;;;12.63;9.93;;;;;;;;;;6163455;23;20017;-87
2023/02/13 03:31:21;;;;;;;14.98;12.35;;;;;;;;;;6167000;23;20021;-87
2023/02/13 03:33:58;;;;;;;11.40;9.00;;;;;;;;;;6194191;23;20017;-88
2023/02/13 03:39:22;;;;;;;15.70;10.73;;;;;;;;;;6198096;23;20019;-88
2023/02/13 03:41:54;;;;;;;16.13;11.32;;;;;;;;;;6188550;23;20013;-88
2023/02/13 03:44:25;;;;;;;22.63;14.70;;;;;;;;;;6206933;23;20017;-85
2023/02/13 03:46:55;;;;;;;19.35;12.45;;;;;;;;;;6173707;23;20016;-85
2023/02/13 03:52:16;;;;;;;15.85;10.85;;;;;;;;;;6167341;23;20213;-86
2023/02/13 04:00:20;;;;;;;21.20;12.20;;;;;;;;;;6191590;23;20020;-88
2023/02/13 04:02:55;;;;;;;17.65;13.63;;;;;;;;;;6131698;23;20425;-87
2023/02/13 04:05:25;;;;;;;16.13;12.35;;;;;;;;;;6166884;23;20024;-88
2023/02/13 04:07:53;;;;;;;12.18;10.30;;;;;;;;;;6182043;23;20009;-88
2023/02/13 04:10:22;;;;;;;13.10;9.95;;;;;;;;;;6132691;23;20024;-88
2023/02/13 04:12:55;;;;;;;74.13;19.17;;;;;;;;;;6155390;23;20013;-88
2023/02/13 04:15:28;;;;;;;25.90;12.48;;;;;;;;;;6166541;23;20017;-88
2023/02/13 04:18:03;;;;;;;19.85;11.85;;;;;;;;;;6164809;23;20020;-88
2023/02/13 04:20:33;;;;;;;15.02;11.27;;;;;;;;;;6162146;23;20438;-88
2023/02/13 04:23:06;;;;;;;16.88;11.85;;;;;;;;;;6130789;23;20028;-88
2023/02/13 04:25:39;;;;;;;27.30;16.63;;;;;;;;;;6191753;23;20032;-88
2023/02/13 04:28:09;;;;;;;15.20;10.38;;;;;;;;;;6192161;23;20013;-88
2023/02/13 04:30:36;;;;;;;13.57;11.50;;;;;;;;;;6187729;23;20024;-89
2023/02/13 04:33:03;;;;;;;14.43;9.38;;;;;;;;;;6156601;23;20013;-89
2023/02/13 04:35:34;;;;;;;11.43;10.23;;;;;;;;;;6182022;23;20013;-89
2023/02/13 04:38:01;;;;;;;14.68;9.52;;;;;;;;;;6153540;23;20017;-89
2023/02/13 04:40:32;;;;;;;11.80;10.05;;;;;;;;;;6181123;23;20013;-89
2023/02/13 04:42:59;;;;;;;12.55;8.90;;;;;;;;;;6155332;23;20021;-88
2023/02/13 04:45:27;;;;;;;12.48;9.18;;;;;;;;;;6166027;23;20013;-88
2023/02/13 04:47:55;;;;;;;12.60;8.82;;;;;;;;;;6154615;23;20013;-88
2023/02/13 04:50:23;;;;;;;10.95;8.23;;;;;;;;;;6154095;23;20013;-87
2023/02/13 04:52:54;;;;;;;10.45;7.57;;;;;;;;;;6190835;23;20024;-87
2023/02/13 04:55:21;;;;;;;12.05;9.50;;;;;;;;;;6182009;23;20013;-87
2023/02/13 04:57:52;;;;;;;11.05;8.85;;;;;;;;;;6181519;23;20013;-88
2023/02/13 05:00:20;;;;;;;15.05;10.95;;;;;;;;;;6181967;23;20013;-88
2023/02/13 05:02:47;;;;;;;10.73;9.52;;;;;;;;;;6181730;23;20024;-88
2023/02/13 05:05:14;;;;;;;12.57;8.50;;;;;;;;;;6192704;23;20013;-88
2023/02/13 05:07:42;;;;;;;10.95;8.10;;;;;;;;;;6163571;23;20019;-87
2023/02/13 05:10:13;;;;;;;11.80;8.27;;;;;;;;;;6164863;23;20024;-87
2023/02/13 05:12:40;;;;;;;15.07;8.70;;;;;;;;;;6140768;23;20025;-88
2023/02/13 05:15:09;;;;;;;10.65;7.20;;;;;;;;;;6159908;23;20017;-88
2023/02/13 05:17:37;;;;;;;12.52;7.13;;;;;;;;;;6157744;23;20017;-88
2023/02/13 05:20:07;;;;;;;15.65;7.97;;;;;;;;;;6192420;23;20013;-88
2023/02/13 05:25:22;;;;;;;10.95;8.77;;;;;;;;;;6158129;23;20350;-88
2023/02/13 05:27:49;;;;;;;13.57;10.82;;;;;;;;;;6182451;23;20441;-88
2023/02/13 05:30:19;;;;;;;15.88;12.55;;;;;;;;;;6132820;23;20028;-87
2023/02/13 05:32:50;;;;;;;12.32;7.93;;;;;;;;;;6182552;23;20028;-86
2023/02/13 05:35:18;;;;;;;19.90;11.10;;;;;;;;;;6158221;23;20028;-87
2023/02/13 05:37:45;;;;;;;23.88;10.00;;;;;;;;;;6156643;23;20009;-87
2023/02/13 05:40:15;;;;;;;16.08;10.07;;;;;;;;;;6154550;23;20031;-87
2023/02/13 05:42:43;;;;;;;18.45;12.68;;;;;;;;;;6125217;23;20017;-87
2023/02/13 05:45:10;;;;;;;19.55;9.95;;;;;;;;;;6176595;23;20408;-87
2023/02/13 05:47:39;;;;;;;14.18;12.07;;;;;;;;;;6150546;23;20020;-87
2023/02/13 05:50:09;;;;;;;12.82;11.15;;;;;;;;;;6183562;23;20024;-87
2023/02/13 05:52:36;;;;;;;14.35;10.40;;;;;;;;;;6187764;23;20253;-87
2023/02/13 05:55:04;;;;;;;13.60;10.48;;;;;;;;;;6125759;23;20028;-87
2023/02/13 05:57:34;;;;;;;27.92;13.35;;;;;;;;;;6179269;23;20024;-86
2023/02/13 06:00:01;;;;;;;16.10;11.43;;;;;;;;;;6125704;23;20053;-86
2023/02/13 06:02:29;;;;;;;79.20;19.25;;;;;;;;;;6176800;23;20013;-87
2023/02/13 06:05:00;;;;;;;22.88;12.68;;;;;;;;;;6177115;23;20021;-87
2023/02/13 06:07:27;;;;;;;21.15;12.95;;;;;;;;;;6126177;23;20366;-87
2023/02/13 06:09:57;;;;;;;24.88;12.90;;;;;;;;;;6162940;23;20013;-87
2023/02/13 06:12:24;;;;;;;30.70;15.02;;;;;;;;;;6156495;23;20028;-87
2023/02/13 06:14:51;;;;;;;18.30;11.98;;;;;;;;;;6193510;23;20352;-87
2023/02/13 06:17:18;;;;;;;19.98;12.52;;;;;;;;;;6184068;23;20031;-87
2023/02/13 06:19:46;;;;;;;20.67;13.30;;;;;;;;;;6183932;23;20016;-87
2023/02/13 06:22:16;;;;;;;21.00;14.48;;;;;;;;;;6157411;23;20024;-87
2023/02/13 06:24:46;;;;;;;19.98;12.50;;;;;;;;;;6193278;23;20021;-87
2023/02/13 06:27:15;;;;;;;15.40;12.48;;;;;;;;;;6156589;23;20017;-88
2023/02/13 06:29:43;;;;;;;18.13;14.27;;;;;;;;;;6183813;23;20009;-88
2023/02/13 06:32:10;;;;;;;12.70;10.00;;;;;;;;;;6155243;23;20028;-88
2023/02/13 06:34:40;;;;;;;16.55;9.57;;;;;;;;;;6183818;23;20024;-88
2023/02/13 06:37:09;;;;;;;14.95;11.13;;;;;;;;;;6182850;23;20028;-88
2023/02/13 06:39:38;;;;;;;16.40;10.75;;;;;;;;;;6157847;23;20013;-88
2023/02/13 06:42:10;;;;;;;11.85;8.32;;;;;;;;;;6132738;23;20032;-87
2023/02/13 06:44:39;;;;;;;13.30;10.30;;;;;;;;;;6156392;23;20029;-88
2023/02/13 06:47:09;;;;;;;13.45;9.20;;;;;;;;;;6132747;23;20031;-87
2023/02/13 06:49:36;;;;;;;10.80;8.82;;;;;;;;;;6158079;23;20021;-87
2023/02/13 06:52:04;;;;;;;10.80;7.95;;;;;;;;;;6150793;23;20017;-86
2023/02/13 06:54:34;;;;;;;9.60;6.13;;;;;;;;;;6153020;23;20361;-86
2023/02/13 06:57:02;;;;;;;11.35;9.05;;;;;;;;;;6153974;23;20346;-86
2023/02/13 06:59:29;;;;;;;12.98;10.25;;;;;;;;;;6152598;23;20017;-86
2023/02/13 07:01:57;;;;;;;9.98;8.68;;;;;;;;;;6153569;23;20312;-85
2023/02/13 07:04:24;;;;;;;12.40;8.80;;;;;;;;;;6128497;23;20476;-86
2023/02/13 07:06:57;;;;;;;10.48;7.88;;;;;;;;;;6128034;23;20029;-86
2023/02/13 07:09:25;;;;;;;12.80;8.93;;;;;;;;;;6153334;23;20017;-85
2023/02/13 07:11:52;;;;;;;11.45;8.95;;;;;;;;;;6149933;23;20017;-84
2023/02/13 07:14:23;;;;;;;9.65;6.85;;;;;;;;;;6149452;23;20028;-85
2023/02/13 07:16:53;;;;;;;7.78;6.65;;;;;;;;;;6161223;23;20014;-85
2023/02/13 07:19:20;;;;;;;11.25;8.60;;;;;;;;;;6148819;23;20013;-85
2023/02/13 07:21:50;;;;;;;14.32;11.48;;;;;;;;;;6149564;23;20018;-86
2023/02/13 07:24:17;;;;;;;13.73;11.52;;;;;;;;;;6150564;23;20029;-86
2023/02/13 07:26:44;;;;;;;12.15;7.75;;;;;;;;;;6150829;23;20418;-86
2023/02/13 07:29:12;;;;;;;13.52;10.88;;;;;;;;;;6152137;23;20453;-86
2023/02/13 07:31:40;;;;;;;14.88;9.70;;;;;;;;;;6150997;23;20013;-86
2023/02/13 07:34:08;;;;;;;12.77;9.52;;;;;;;;;;6149275;23;20306;-86
2023/02/13 07:36:37;;;;;;;23.48;10.50;;;;;;;;;;6151225;23;20013;-86
2023/02/13 07:39:05;;;;;;;12.45;9.40;;;;;;;;;;6152332;23;20016;-86
2023/02/13 07:41:34;;;;;;;13.43;10.15;;;;;;;;;;6149580;23;20331;-86
2023/02/13 07:44:04;;;;;;;11.90;9.20;;;;;;;;;;6126177;23;20030;-85
2023/02/13 07:46:33;;;;;;;18.88;9.02;;;;;;;;;;6149001;23;20032;-86
2023/02/13 07:49:04;;;;;;;18.30;10.52;;;;;;;;;;6152092;23;20014;-86
2023/02/13 07:51:34;;;;;;;16.08;9.65;;;;;;;;;;6154549;23;20017;-86
2023/02/13 07:54:01;;;;;;;13.80;8.38;;;;;;;;;;6126929;23;20025;-87
2023/02/13 07:56:29;;;;;;;13.00;9.18;;;;;;;;;;6149258;23;20036;-87
2023/02/13 07:58:56;;;;;;;13.85;8.77;;;;;;;;;;6154257;23;20020;-87
2023/02/13 08:01:23;;;;;;;12.57;8.40;;;;;;;;;;6153700;23;20036;-87
2023/02/13 08:03:51;;;;;;;11.23;7.97;;;;;;;;;;6131854;23;20017;-87
2023/02/13 08:06:20;;;;;;;14.57;9.07;;;;;;;;;;6154658;23;20017;-87
2023/02/13 08:08:47;;;;;;;14.85;11.57;;;;;;;;;;6153348;23;20013;-87
2023/02/13 08:14:08;;;;;;;11.57;8.35;;;;;;;;;;6163733;23;20046;-87
2023/02/13 08:16:38;;;;;;;13.38;8.63;;;;;;;;;;6151881;23;20025;-87
2023/02/13 08:19:05;;;;;;;10.10;8.02;;;;;;;;;;6153132;23;20346;-86
2023/02/13 08:21:37;;;;;;;11.15;8.15;;;;;;;;;;6153550;23;20095;-87
2023/02/13 08:24:07;;;;;;;12.75;10.73;;;;;;;;;;6152321;23;20034;-86
2023/02/13 08:26:34;;;;;;;11.10;8.35;;;;;;;;;;6127976;23;20496;-86
2023/02/13 08:29:01;;;;;;;10.00;8.23;;;;;;;;;;6126921;23;20018;-86
2023/02/13 08:31:28;;;;;;;9.90;7.65;;;;;;;;;;6152643;23;20018;-86
2023/02/13 08:33:56;;;;;;;13.60;10.07;;;;;;;;;;6127232;23;20025;-87
2023/02/13 08:36:26;;;;;;;11.35;9.57;;;;;;;;;;6152512;23;20014;-87
2023/02/13 08:38:54;;;;;;;10.45;8.57;;;;;;;;;;6154138;23;20014;-86
2023/02/13 08:41:22;;;;;;;10.05;8.77;;;;;;;;;;6152616;23;20028;-87
2023/02/13 08:43:49;;;;;;;14.13;10.05;;;;;;;;;;6128990;23;20032;-87
2023/02/13 08:46:19;;;;;;;13.50;9.35;;;;;;;;;;6131030;23;20040;-87
2023/02/13 08:48:49;;;;;;;10.13;9.13;;;;;;;;;;6153711;23;20025;-87
2023/02/13 08:51:19;;;;;;;11.70;9.63;;;;;;;;;;6152841;23;20032;-87
2023/02/13 08:53:48;;;;;;;17.88;10.80;;;;;;;;;;6152270;23;20024;-87
2023/02/13 08:56:22;;;;;;;25.25;14.45;;;;;;;;;;6129450;23;20028;-87
2023/02/13 08:58:51;;;;;;;15.27;9.70;;;;;;;;;;6128767;23;20024;-87
2023/02/13 09:01:19;;;;;;;9.70;7.72;;;;;;;;;;6128180;23;20052;-88
2023/02/13 09:03:46;;;;;;;12.20;7.43;;;;;;;;;;6152481;23;20018;-88
2023/02/13 09:06:14;;;;;;;14.73;9.90;;;;;;;;;;6126923;23;20342;-88
2023/02/13 09:08:41;;;;;;;14.68;9.45;;;;;;;;;;6128545;23;20018;-88
2023/02/13 09:11:10;;;;;;;13.20;8.23;;;;;;;;;;6128442;23;20022;-88
2023/02/13 09:13:42;;;;;;;14.25;9.27;;;;;;;;;;6153167;23;20050;-88
2023/02/13 09:16:13;;;;;;;12.75;8.80;;;;;;;;;;6126671;23;20484;-88
2023/02/13 09:18:41;;;;;;;15.82;10.38;;;;;;;;;;6154004;23;20018;-88
2023/02/13 09:21:11;;;;;;;13.23;8.77;;;;;;;;;;6129066;23;20024;-88
2023/02/13 09:23:42;;;;;;;11.70;8.60;;;;;;;;;;6147908;23;20021;-88
2023/02/13 09:26:15;;;;;;;11.93;10.70;;;;;;;;;;6128851;23;20264;-88
2023/02/13 09:28:44;;;;;;;13.98;9.98;;;;;;;;;;6127990;23;20754;-88
2023/02/13 09:31:15;;;;;;;10.07;8.65;;;;;;;;;;6154081;23;20041;-88
2023/02/13 09:33:43;;;;;;;11.75;9.32;;;;;;;;;;6155335;23;20022;-87
2023/02/13 09:36:15;;;;;;;11.90;8.18;;;;;;;;;;6130239;23;20025;-87
2023/02/13 09:38:43;;;;;;;10.57;8.13;;;;;;;;;;6130952;23;20018;-89
2023/02/13 09:41:15;;;;;;;14.73;8.23;;;;;;;;;;6130633;23;20020;-87
2023/02/13 09:43:50;;;;;;;13.60;7.53;;;;;;;;;;6131068;23;20358;-90
2023/02/13 09:46:20;;;;;;;12.15;9.35;;;;;;;;;;6132791;23;20499;-87
2023/02/13 09:48:52;;;;;;;13.23;10.30;;;;;;;;;;6131844;23;20457;-90
2023/02/13 09:51:22;;;;;;;15.77;10.05;;;;;;;;;;6137917;23;20021;-87
2023/02/13 09:53:53;;;;;;;16.88;12.15;;;;;;;;;;6132357;23;20036;-88
2023/02/13 09:56:24;;;;;;;14.93;9.88;;;;;;;;;;6164921;23;20017;-89
2023/02/13 09:58:59;;;;;;;11.88;9.65;;;;;;;;;;6168058;23;20010;-89
2023/02/13 10:01:29;;;;;;;17.10;10.35;;;;;;;;;;6131899;23;20480;-89
2023/02/13 10:04:19;;;;;;;11.80;10.20;;;;;;;;;;6155252;23;20028;-88
2023/02/13 10:06:50;;;;;;;14.15;8.90;;;;;;;;;;6131105;23;20014;-89
2023/02/13 10:09:22;;;;;;;;;;;;;;;;;;6166566;23;20021;-89
2023/02/13 10:12:04;;;;;;;;;;;;;;;;;;6156471;23;19916;-88
2023/02/13 10:14:42;;;;;;;13.10;8.95;;;;;;;;;;6154403;23;19916;-89
2023/02/13 10:17:17;;;;;;;11.75;8.52;;;;;;;;;;6130853;23;20017;-89
2023/02/13 10:19:48;;;;;;;12.65;8.63;;;;;;;;;;6159504;23;20040;-89
2023/02/13 10:22:21;;;;;;;11.55;9.05;;;;;;;;;;6168127;23;20014;-88
2023/02/13 10:24:55;;;;;;;13.20;9.13;;;;;;;;;;6132907;23;20022;-88
2023/02/13 10:27:25;;;;;;;11.43;9.02;;;;;;;;;;6132140;23;20358;-88
2023/02/13 10:30:08;;;;;;;14.18;8.85;;;;;;;;;;6131810;23;20014;-88
2023/02/13 10:33:09;;;;;;;13.30;9.25;;;;;;;;;;6157738;23;20020;-88
2023/02/13 10:35:38;;;;;;;10.52;7.57;;;;;;;;;;6132822;23;20017;-89
2023/02/13 10:38:14;;;;;;;13.05;9.18;;;;;;;;;;6132424;23;20023;-88
2023/02/13 10:41:04;;;;;;;12.27;9.30;;;;;;;;;;6167752;23;20010;-87
2023/02/13 10:43:40;;;;;;;13.13;9.63;;;;;;;;;;6133710;23;20021;-90
2023/02/13 10:46:22;;;;;;;11.55;8.07;;;;;;;;;;6133750;23;20020;-88
2023/02/13 10:49:04;;;;;;;14.98;9.95;;;;;;;;;;6134064;23;20029;-88
2023/02/13 10:51:39;;;;;;;11.15;8.13;;;;;;;;;;6156560;23;20045;-90
2023/02/13 10:54:33;;;;;;;11.65;9.73;;;;;;;;;;6133412;23;20026;-89
2023/02/13 10:57:09;;;;;;;11.63;8.40;;;;;;;;;;6156376;23;20028;-89
2023/02/13 10:59:55;;;;;;;12.50;8.98;;;;;;;;;;6130771;23;20041;-91
2023/02/13 11:02:28;;;;;;;10.02;6.70;;;;;;;;;;6130869;23;20029;-88
2023/02/13 11:05:10;;;;;;;9.65;6.88;;;;;;;;;;6133206;23;20018;-89
2023/02/13 11:07:41;;;;;;;10.73;7.82;;;;;;;;;;6131553;23;20205;-89
2023/02/13 11:10:16;;;;;;;8.35;7.55;;;;;;;;;;6133972;23;20017;-89
2023/02/13 11:13:18;;;;;;;12.18;7.57;;;;;;;;;;6156661;23;20043;-88
2023/02/13 11:16:00;;;;;;;9.43;7.72;;;;;;;;;;6161707;23;20036;-88
2023/02/13 11:18:36;;;;;;;10.85;8.02;;;;;;;;;;6138531;23;20028;-89
2023/02/13 11:21:07;;;;;;;11.68;8.18;;;;;;;;;;6134778;23;20024;-89
2023/02/13 11:23:41;;;;;;;13.88;7.65;;;;;;;;;;6133451;23;20017;-88
2023/02/13 11:26:18;;;;;;;12.40;7.78;;;;;;;;;;6135806;23;20022;-90
2023/02/13 11:28:54;;;;;;;10.35;6.70;;;;;;;;;;6137252;23;20019;-88
2023/02/13 11:31:29;;;;;;;10.68;7.57;;;;;;;;;;6132791;23;20022;-90
2023/02/13 11:34:22;;;;;;;13.68;9.60;;;;;;;;;;6131994;23;20026;-90
2023/02/13 11:36:53;;;;;;;8.55;7.32;;;;;;;;;;6130161;23;20023;-88
2023/02/13 11:39:26;;;;;;;11.05;8.02;;;;;;;;;;6155451;23;20032;-89
2023/02/13 11:41:56;;;;;;;11.80;6.88;;;;;;;;;;6129015;23;20503;-91
2023/02/13 11:44:34;;;;;;;11.15;7.60;;;;;;;;;;6129189;23;20021;-89
2023/02/13 11:47:02;;;;;;;10.05;7.55;;;;;;;;;;6128662;23;20468;-89
2023/02/13 11:49:37;;;;;;;10.73;7.53;;;;;;;;;;6127034;23;20021;-88
2023/02/13 11:52:10;;;;;;;13.13;7.75;;;;;;;;;;6154535;23;20017;-88
2023/02/13 11:54:40;;;;;;;8.85;6.93;;;;;;;;;;6127043;23;20022;-88
2023/02/13 11:57:19;;;;;;;10.55;8.05;;;;;;;;;;6131160;23;20021;-89
2023/02/13 11:59:49;;;;;;;9.77;6.57;;;;;;;;;;6166593;23;20013;-88
2023/02/13 12:02:24;;;;;;;8.13;6.50;;;;;;;;;;6135737;23;20025;-88
2023/02/13 12:05:15;;;;;;;8.43;7.22;;;;;;;;;;6132669;23;20021;-88
2023/02/13 12:07:46;;;;;;;10.02;7.68;;;;;;;;;;6130773;23;20490;-90
2023/02/13 12:10:23;;;;;;;10.15;7.47;;;;;;;;;;6165871;23;20333;-87
2023/02/13 12:12:59;;;;;;;7.88;5.90;;;;;;;;;;6157525;23;20024;-89
2023/02/13 12:15:29;;;;;;;;;;;;;;;;;;6162942;23;20036;-88
2023/02/13 12:18:17;;;;;;;8.32;6.65;;;;;;;;;;6156144;23;19920;-90
2023/02/13 12:20:55;;;;;;;11.10;6.50;;;;;;;;;;6132210;23;20017;-89
2023/02/13 12:23:34;;;;;;;8.88;7.75;;;;;;;;;;6163473;23;20009;-89
2023/02/13 12:26:10;;;;;;;10.23;7.60;;;;;;;;;;6132511;23;20489;-89
2023/02/13 12:28:51;;;;;;;9.13;6.50;;;;;;;;;;6157711;23;20018;-88
2023/02/13 12:31:41;;;;;;;8.25;6.00;;;;;;;;;;6167251;23;20021;-90
2023/02/13 12:34:44;;;;;;;9.30;6.88;;;;;;;;;;6154280;23;20727;-89
2023/02/13 12:37:54;;;;;;;8.90;7.22;;;;;;;;;;6165272;23;20013;-88
2023/02/13 12:41:11;;;;;;;8.68;6.25;;;;;;;;;;6122803;23;20025;-89
2023/02/13 12:44:03;;;;;;;7.13;6.35;;;;;;;;;;6161969;23;20014;-91
2023/02/13 12:46:40;;;;;;;10.23;7.90;;;;;;;;;;6133153;23;20077;-88
2023/02/13 12:49:24;;;;;;;7.97;6.95;;;;;;;;;;6131723;23;20021;-90
2023/02/13 12:51:58;;;;;;;11.25;7.38;;;;;;;;;;6125881;23;20025;-85
2023/02/13 12:54:51;;;;;;;8.98;6.53;;;;;;;;;;6158794;23;20021;-85
2023/02/13 12:57:48;;;;;;;;;;;;;;;;;;;;;
2023/02/13 13:00:28;;;;;;;8.63;6.53;;;;;;;;;;6150578;23;20021;-86
2023/02/13 13:03:26;;;;;;;10.45;6.70;;;;;;;;;;6122108;23;20030;-86
2023/02/13 13:06:03;;;;;;;;;;;;;;;;;;6156041;23;20469;-86
2023/02/13 13:08:44;;;;;;;7.57;6.45;;;;;;;;;;6132312;23;19925;-87
2023/02/13 13:11:21;;;;;;;7.35;5.70;;;;;;;;;;6128787;23;20478;-85
2023/02/13 13:13:59;;;;;;;8.63;6.25;;;;;;;;;;6130681;23;20034;-86
2023/02/13 13:16:33;;;;;;;11.02;6.57;;;;;;;;;;6120437;23;20022;-86
2023/02/13 13:19:07;;;;;;;9.35;6.60;;;;;;;;;;6132645;23;20021;-86
2023/02/13 13:21:42;;;;;;;7.28;5.72;;;;;;;;;;6095155;23;20558;-86
2023/02/13 13:24:22;;;;;;;6.57;5.35;;;;;;;;;;6130959;23;20014;-86
2023/02/13 13:26:53;;;;;;;7.65;5.60;;;;;;;;;;6131620;23;20488;-86
2023/02/13 13:29:23;;;;;;;6.85;5.85;;;;;;;;;;6125271;23;20030;-86
2023/02/13 13:31:53;;;;;;;9.05;6.07;;;;;;;;;;6124284;23;20022;-86
2023/02/13 13:34:23;;;;;;;6.80;4.53;;;;;;;;;;6135707;23;20014;-85
2023/02/13 13:36:54;;;;;;;5.93;5.22;;;;;;;;;;6122708;23;20362;-86
2023/02/13 13:39:33;;;;;;;5.78;5.07;;;;;;;;;;6096741;23;20014;-86
2023/02/13 13:42:08;;;;;;;9.70;5.22;;;;;;;;;;6127567;23;20010;-85
2023/02/13 13:45:08;;;;;;;8.25;4.90;;;;;;;;;;6135415;23;20014;-86
2023/02/13 13:47:49;;;;;;;8.02;5.13;;;;;;;;;;6121109;23;20018;-86
2023/02/13 13:50:22;;;;;;;7.20;5.63;;;;;;;;;;6122877;23;20040;-86
2023/02/13 13:53:07;;;;;;;8.50;5.18;;;;;;;;;;6097834;23;20018;-85
2023/02/13 13:56:14;;;;;;;6.00;4.40;;;;;;;;;;6134010;23;20517;-87
2023/02/13 13:58:46;;;;;;;5.47;4.22;;;;;;;;;;6135052;23;20017;-91
2023/02/13 14:01:18;;;;;;;5.40;4.20;;;;;;;;;;6130082;23;20021;-86
2023/02/13 14:03:48;;;;;;;9.30;5.22;;;;;;;;;;6133884;23;20025;-87
2023/02/13 14:06:18;;;;;;;5.38;4.38;;;;;;;;;;6124942;23;20024;-87
2023/02/13 14:09:08;;;;;;;5.05;3.50;;;;;;;;;;6123618;23;20022;-87
2023/02/13 14:11:41;;;;;;;4.85;3.45;;;;;;;;;;6122220;23;20017;-88
2023/02/13 14:14:51;;;;;;;4.90;4.40;;;;;;;;;;6131796;23;20018;-87
2023/02/13 14:17:53;;;;;;;6.65;4.47;;;;;;;;;;6133753;23;20021;-87
2023/02/13 14:20:29;;;;;;;5.70;4.30;;;;;;;;;;6099592;23;20481;-87
2023/02/13 14:22:56;;;;;;;5.30;3.92;;;;;;;;;;6132386;23;20324;-85
2023/02/13 14:25:25;;;;;;;5.72;3.97;;;;;;;;;;6134960;23;20029;-85
2023/02/13 14:28:00;;;;;;;6.25;4.45;;;;;;;;;;6122040;23;20367;-87
2023/02/13 14:30:30;;;;;;;5.35;3.83;;;;;;;;;;6139835;23;20018;-88
2023/02/13 14:33:01;;;;;;;5.63;4.85;;;;;;;;;;6142823;23;20014;-83
2023/02/13 14:35:36;;;;;;;;;;;;;;;;;;6179384;23;20018;-85
2023/02/13 14:38:06;;;;;;;7.28;4.85;;;;;;;;;;6146118;23;19920;-87
2023/02/13 14:40:46;;;;;;;6.20;4.53;;;;;;;;;;6133558;23;20021;-87
2023/02/13 14:43:30;;;;;;;5.03;4.53;;;;;;;;;;6133901;23;20033;-86
2023/02/13 14:46:03;;;;;;;4.60;3.63;;;;;;;;;;6132933;23;20025;-87
2023/02/13 14:48:46;;;;;;;5.10;4.20;;;;;;;;;;6132753;23;20041;-87
2023/02/13 14:51:30;;;;;;;5.35;4.28;;;;;;;;;;6130612;23;20014;-86
2023/02/13 14:54:06;;;;;;;6.90;4.13;;;;;;;;;;6123514;23;20515;-86
2023/02/13 14:56:42;;;;;;;7.68;3.88;;;;;;;;;;6132514;23;20041;-86
2023/02/13 14:59:15;;;;;;;7.90;4.18;;;;;;;;;;6123377;23;20033;-87
2023/02/13 15:02:03;;;;;;;5.68;4.40;;;;;;;;;;6098318;23;20374;-87
2023/02/13 15:04:40;;;;;;;6.85;4.68;;;;;;;;;;6135081;23;20025;-86
2023/02/13 15:07:15;;;;;;;5.78;4.90;;;;;;;;;;6133921;23;20454;-87
2023/02/13 15:09:50;;;;;;;6.47;4.38;;;;;;;;;;6135037;23;20014;-87
2023/02/13 15:12:28;;;;;;;6.78;4.80;;;;;;;;;;6125172;23;20010;-87
2023/02/13 15:15:00;;;;;;;10.40;4.75;;;;;;;;;;6099094;23;20378;-87
2023/02/13 15:17:37;;;;;;;6.70;4.47;;;;;;;;;;6124639;23;20470;-87
2023/02/13 15:20:09;;;;;;;5.25;4.15;;;;;;;;;;6146006;23;20018;-86
2023/02/13 15:22:39;;;;;;;6.03;3.90;;;;;;;;;;6137404;23;20218;-86
2023/02/13 15:25:08;;;;;;;5.40;4.40;;;;;;;;;;6136405;23;20036;-85
2023/02/13 15:27:40;;;;;;;10.35;4.72;;;;;;;;;;6129174;23;20018;-87
2023/02/13 15:30:19;;;;;;;8.35;4.43;;;;;;;;;;6132248;23;20014;-86
2023/02/13 15:32:54;;;;;;;6.18;4.28;;;;;;;;;;6121047;23;20354;-87
2023/02/13 15:35:23;;;;;;;7.20;3.92;;;;;;;;;;6133717;23;20018;-87
2023/02/13 15:37:51;;;;;;;7.45;4.95;;;;;;;;;;6097205;23;20029;-86
2023/02/13 15:40:24;;;;;;;8.30;4.97;;;;;;;;;;6122441;23;20018;-86
2023/02/13 15:42:52;;;;;;;5.88;5.15;;;;;;;;;;6121174;23;20014;-87
2023/02/13 15:45:20;;;;;;;9.88;4.20;;;;;;;;;;6122519;23;20018;-87
2023/02/13 15:47:48;;;;;;;6.32;5.40;;;;;;;;;;6121195;23;20018;-87
2023/02/13 15:50:22;;;;;;;5.18;4.30;;;;;;;;;;6098125;23;20029;-87
2023/02/13 15:52:49;;;;;;;5.25;4.03;;;;;;;;;;6121961;23;20017;-87